Time,TemperatureF,DewpointF,PressureIn,WindDirection,WindDirectionDegrees,WindSpeedMPH,WindSpeedGustMPH,Humidity,HourlyPrecipIn,Conditions,Clouds,dailyrainin,SolarRadiationWatts/m^2,SoftwareType,DateUTC
2013-09-17 00:00:00,61.2,58.6,29.85,South,169,0.0,0.0,91,0.00,,,0.00,0,Wunderground v.1.15,2013-09-17 07:00:00,
2013-09-17 00:05:00,61.3,58.7,29.86,South,174,0.0,0.0,91,0.00,,,0.00,0,Wunderground v.1.15,2013-09-17 07:05:00,
2013-09-17 00:15:00,61.3,58.7,29.86,South,171,0.0,0.0,91,0.00,,,0.00,0,Wunderground v.1.15,2013-09-17 07:15:00,
2013-09-17 00:25:00,61.2,58.2,29.86,South,174,0.0,0.0,90,0.00,,,0.00,0,Wunderground v.1.15,2013-09-17 07:25:00,
2013-09-17 00:30:00,61.4,58.7,29.86,South,176,0.0,0.0,91,0.00,,,0.00,0,Wunderground v.1.15,2013-09-17 07:30:00,
2013-09-17 00:40:00,61.9,59.2,29.86,South,170,0.0,0.0,91,0.00,,,0.00,0,Wunderground v.1.15,2013-09-17 07:40:00,
2013-09-17 00:45:00,62.1,59.1,29.86,South,172,0.0,0.0,90,0.00,,,0.00,0,Wunderground v.1.15,2013-09-17 07:45:00,
2013-09-17 00:50:00,62.1,58.8,29.86,South,171,0.0,0.0,89,0.00,,,0.00,0,Wunderground v.1.15,2013-09-17 07:50:00,
2013-09-17 01:00:00,61.6,58.3,29.85,SSE,158,0.0,0.0,89,0.00,,,0.00,0,Wunderground v.1.15,2013-09-17 08:00:00,
2013-09-17 01:05:00,61.4,58.4,29.85,SSE,166,0.0,0.0,90,0.00,,,0.00,0,Wunderground v.1.15,2013-09-17 08:05:00,
2013-09-17 01:15:00,61.3,58.7,29.85,SSE,163,0.0,0.0,91,0.00,,,0.00,0,Wunderground v.1.15,2013-09-17 08:15:00,
2013-09-17 01:20:00,61.3,58.7,29.86,SSE,159,0.0,0.0,91,0.00,,,0.00,0,Wunderground v.1.15,2013-09-17 08:20:00,
2013-09-17 01:30:00,61.3,58.7,29.85,South,173,0.0,0.0,91,0.00,,,0.00,0,Wunderground v.1.15,2013-09-17 08:30:00,
2013-09-17 01:35:00,61.5,58.8,29.85,South,175,0.0,0.0,91,0.00,,,0.00,0,Wunderground v.1.15,2013-09-17 08:35:00,
2013-09-17 01:40:00,61.5,58.8,29.85,South,181,0.0,0.0,91,0.00,,,0.00,0,Wunderground v.1.15,2013-09-17 08:40:00,
2013-09-17 01:50:00,61.6,58.9,29.85,SSW,192,0.0,0.0,91,0.00,,,0.00,0,Wunderground v.1.15,2013-09-17 08:50:00,
2013-09-17 01:55:00,61.5,58.8,29.85,South,182,0.0,0.0,91,0.00,,,0.00,0,Wunderground v.1.15,2013-09-17 08:55:00,
2013-09-17 02:05:00,61.4,58.4,29.85,South,181,0.0,0.0,90,0.00,,,0.00,0,Wunderground v.1.15,2013-09-17 09:05:00,
2013-09-17 02:10:00,61.7,59.0,29.85,South,188,0.0,0.0,91,0.00,,,0.00,0,Wunderground v.1.15,2013-09-17 09:10:00,
2013-09-17 02:15:00,61.5,58.8,29.85,SSE,160,0.0,0.0,91,0.00,,,0.00,0,Wunderground v.1.15,2013-09-17 09:15:00,
2013-09-17 02:25:00,61.4,58.7,29.85,SSW,208,0.0,0.0,91,0.00,,,0.00,0,Wunderground v.1.15,2013-09-17 09:25:00,
2013-09-17 02:30:00,61.2,58.2,29.85,SSW,202,0.0,0.0,90,0.00,,,0.00,0,Wunderground v.1.15,2013-09-17 09:30:00,
2013-09-17 02:35:00,61.2,58.6,29.85,SSW,208,0.0,0.0,91,0.00,,,0.00,0,Wunderground v.1.15,2013-09-17 09:35:00,
2013-09-17 02:45:00,60.9,57.9,29.86,SSW,208,0.0,0.0,90,0.00,,,0.00,0,Wunderground v.1.15,2013-09-17 09:45:00,
2013-09-17 02:50:00,60.9,58.3,29.85,SSW,208,0.0,0.0,91,0.00,,,0.00,0,Wunderground v.1.15,2013-09-17 09:50:00,
2013-09-17 02:55:00,61.1,58.1,29.86,SSW,208,0.0,0.0,90,0.00,,,0.00,0,Wunderground v.1.15,2013-09-17 09:55:00,
2013-09-17 03:05:00,61.3,58.7,29.85,SSW,208,0.0,0.0,91,0.00,,,0.00,0,Wunderground v.1.15,2013-09-17 10:05:00,
2013-09-17 03:10:00,61.3,58.3,29.85,SSW,208,0.0,0.0,90,0.00,,,0.00,0,Wunderground v.1.15,2013-09-17 10:10:00,
2013-09-17 03:20:00,61.1,57.8,29.85,NNW,328,0.0,0.0,89,0.00,,,0.00,0,Wunderground v.1.15,2013-09-17 10:20:00,
2013-09-17 03:25:00,61.3,57.4,29.85,WNW,303,0.0,0.0,87,0.00,,,0.00,0,Wunderground v.1.15,2013-09-17 10:25:00,
2013-09-17 03:30:00,61.5,57.3,29.85,WNW,302,0.0,0.0,86,0.00,,,0.00,0,Wunderground v.1.15,2013-09-17 10:30:00,
2013-09-17 03:40:00,61.5,56.9,29.85,WNW,303,0.0,0.0,85,0.00,,,0.00,0,Wunderground v.1.15,2013-09-17 10:40:00,
2013-09-17 03:45:00,61.6,57.0,29.85,East,85,0.0,0.0,85,0.00,,,0.00,0,Wunderground v.1.15,2013-09-17 10:45:00,
2013-09-17 03:55:00,62.1,58.5,29.85,SSE,155,0.0,0.0,88,0.00,,,0.00,0,Wunderground v.1.15,2013-09-17 10:55:00,
2013-09-17 04:00:00,61.5,57.9,29.85,SSE,147,0.0,0.0,88,0.00,,,0.00,0,Wunderground v.1.15,2013-09-17 11:00:00,
2013-09-17 04:05:00,61.2,57.9,29.85,SSE,156,0.0,0.0,89,0.00,,,0.00,0,Wunderground v.1.15,2013-09-17 11:05:00,
2013-09-17 04:10:00,61.1,58.1,29.85,South,186,0.0,0.0,90,0.00,,,0.00,0,Wunderground v.1.15,2013-09-17 11:10:00,
2013-09-17 04:20:00,61.5,58.2,29.85,South,191,0.0,0.0,89,0.00,,,0.00,0,Wunderground v.1.15,2013-09-17 11:20:00,
2013-09-17 04:25:00,61.6,58.3,29.85,South,182,0.0,0.0,89,0.00,,,0.00,0,Wunderground v.1.15,2013-09-17 11:25:00,
2013-09-17 04:35:00,61.8,58.5,29.85,South,182,0.0,0.0,89,0.00,,,0.00,0,Wunderground v.1.15,2013-09-17 11:35:00,
2013-09-17 04:40:00,61.6,58.6,29.85,South,187,0.0,0.0,90,0.00,,,0.00,0,Wunderground v.1.15,2013-09-17 11:40:00,
2013-09-17 04:45:00,61.2,57.9,29.85,SSE,154,0.0,0.0,89,0.00,,,0.00,0,Wunderground v.1.15,2013-09-17 11:45:00,
2013-09-17 04:55:00,61.1,58.5,29.85,SSE,168,0.0,0.0,91,0.00,,,0.00,0,Wunderground v.1.15,2013-09-17 11:55:00,
2013-09-17 05:00:00,61.1,58.5,29.85,South,178,0.0,0.0,91,0.00,,,0.00,0,Wunderground v.1.15,2013-09-17 12:00:00,
2013-09-17 05:10:00,60.9,57.9,29.86,South,178,0.0,0.0,90,0.00,,,0.00,0,Wunderground v.1.15,2013-09-17 12:10:00,
2013-09-17 05:15:00,60.7,57.7,29.86,NW,307,0.0,0.0,90,0.00,,,0.00,0,Wunderground v.1.15,2013-09-17 12:15:00,
2013-09-17 05:25:00,60.5,57.2,29.86,NW,315,0.0,0.0,89,0.00,,,0.00,0,Wunderground v.1.15,2013-09-17 12:25:00,
2013-09-17 05:30:00,60.8,56.9,29.86,WNW,301,0.0,0.0,87,0.00,,,0.00,0,Wunderground v.1.15,2013-09-17 12:30:00,
2013-09-17 05:40:00,61.6,57.0,29.86,WNW,293,0.0,0.0,85,0.00,,,0.00,0,Wunderground v.1.15,2013-09-17 12:40:00,
2013-09-17 05:45:00,61.6,56.7,29.86,WNW,302,0.0,0.0,84,0.00,,,0.00,0,Wunderground v.1.15,2013-09-17 12:45:00,
2013-09-17 05:54:00,61.4,56.2,29.86,WNW,299,0.0,0.0,83,0.00,,,0.00,0,Wunderground v.1.15,2013-09-17 12:54:00,
2013-09-17 06:00:00,61.4,56.2,29.86,NW,315,0.0,0.0,83,0.00,,,0.00,0,Wunderground v.1.15,2013-09-17 13:00:00,
2013-09-17 06:05:00,61.4,56.5,29.86,NW,313,0.0,0.0,84,0.00,,,0.00,0,Wunderground v.1.15,2013-09-17 13:05:00,
2013-09-17 06:15:00,61.4,56.5,29.86,WNW,293,0.0,0.0,84,0.00,,,0.00,0,Wunderground v.1.15,2013-09-17 13:15:00,
2013-09-17 06:20:00,61.6,56.4,29.86,WNW,297,0.0,0.0,83,0.00,,,0.00,0,Wunderground v.1.15,2013-09-17 13:20:00,
2013-09-17 06:25:00,61.5,56.0,29.86,WNW,294,0.0,0.0,82,0.00,,,0.00,0,Wunderground v.1.15,2013-09-17 13:25:00,
2013-09-17 06:34:00,61.4,56.2,29.86,WNW,302,0.0,0.0,83,0.00,,,0.00,0,Wunderground v.1.15,2013-09-17 13:34:00,
2013-09-17 06:40:00,61.4,56.2,29.87,WNW,299,0.0,0.0,83,0.00,,,0.00,0,Wunderground v.1.15,2013-09-17 13:40:00,
2013-09-17 06:45:00,61.4,56.2,29.87,NW,315,0.0,0.0,83,0.00,,,0.00,0,Wunderground v.1.15,2013-09-17 13:45:00,
2013-09-17 06:55:00,61.3,56.1,29.88,NW,320,0.0,0.0,83,0.00,,,0.00,5,Wunderground v.1.15,2013-09-17 13:55:00,
2013-09-17 07:00:00,61.3,56.1,29.87,NW,314,0.0,0.0,83,0.00,,,0.00,7,Wunderground v.1.15,2013-09-17 14:00:00,
2013-09-17 07:09:00,61.5,56.0,29.88,NW,307,0.0,0.0,82,0.00,,,0.00,12,Wunderground v.1.15,2013-09-17 14:09:00,
2013-09-17 07:15:00,61.6,56.0,29.88,NW,306,0.0,0.0,82,0.00,,,0.00,18,Wunderground v.1.15,2013-09-17 14:15:00,
2013-09-17 07:20:00,61.6,56.0,29.88,NW,305,0.0,0.0,82,0.00,,,0.00,25,Wunderground v.1.15,2013-09-17 14:20:00,
2013-09-17 07:30:00,62.0,56.1,29.88,NW,305,0.0,0.0,81,0.00,,,0.00,46,Wunderground v.1.15,2013-09-17 14:30:00,
2013-09-17 07:35:00,62.2,56.3,29.88,WNW,303,0.0,0.0,81,0.00,,,0.00,60,Wunderground v.1.15,2013-09-17 14:35:00,
2013-09-17 07:45:00,62.6,56.3,29.88,NW,309,0.0,0.0,80,0.00,,,0.00,90,Wunderground v.1.15,2013-09-17 14:45:00,
2013-09-17 07:50:00,63.0,56.4,29.88,NW,315,0.0,0.0,79,0.00,,,0.00,107,Wunderground v.1.15,2013-09-17 14:50:00,
2013-09-17 08:00:00,63.8,56.4,29.88,NW,320,0.0,0.0,77,0.00,,,0.00,148,Wunderground v.1.15,2013-09-17 15:00:00,
2013-09-17 08:05:00,63.8,56.1,29.88,NNW,333,0.0,0.0,76,0.00,,,0.00,165,Wunderground v.1.15,2013-09-17 15:05:00,
2013-09-17 17:10:00,71.9,58.2,29.85,NNW,348,0.0,0.0,62,0.00,,,0.00,374,Wunderground v.1.15,2013-09-18 00:10:00,
2013-09-17 17:15:00,71.9,57.3,29.85,NW,310,0.0,0.0,60,0.00,,,0.00,360,Wunderground v.1.15,2013-09-18 00:15:00,
2013-09-17 17:20:00,71.2,57.5,29.85,WSW,245,0.0,0.0,62,0.00,,,0.00,341,Wunderground v.1.15,2013-09-18 00:20:00,
2013-09-17 17:25:00,71.5,57.3,29.85,WNW,292,0.0,0.0,61,0.00,,,0.00,325,Wunderground v.1.15,2013-09-18 00:25:00,
2013-09-17 17:30:00,71.3,57.2,29.85,WNW,289,0.0,0.0,61,0.00,,,0.00,308,Wunderground v.1.15,2013-09-18 00:30:00,
2013-09-17 17:35:00,71.4,57.2,29.85,West,278,0.0,0.0,61,0.00,,,0.00,290,Wunderground v.1.15,2013-09-18 00:35:00,
2013-09-17 17:45:00,71.5,56.9,29.85,WNW,297,0.0,0.0,60,0.00,,,0.00,260,Wunderground v.1.15,2013-09-18 00:45:00,
2013-09-17 17:50:00,71.2,57.1,29.86,WSW,255,0.0,0.0,61,0.00,,,0.00,243,Wunderground v.1.15,2013-09-18 00:50:00,
2013-09-17 17:55:00,71.5,57.3,29.86,SSW,203,0.0,0.0,61,0.00,,,0.00,220,Wunderground v.1.15,2013-09-18 00:55:00,
2013-09-17 18:00:00,71.4,58.1,29.86,SW,218,0.0,0.0,63,0.00,,,0.00,200,Wunderground v.1.15,2013-09-18 01:00:00,
2013-09-17 18:09:00,71.2,57.5,29.86,SW,231,0.0,0.0,62,0.00,,,0.00,160,Wunderground v.1.15,2013-09-18 01:09:00,
2013-09-17 18:15:00,71.4,57.2,29.86,WNW,287,0.0,0.0,61,0.00,,,0.00,139,Wunderground v.1.15,2013-09-18 01:15:00,
2013-09-17 18:20:00,70.2,56.6,29.86,WSW,245,0.0,0.0,62,0.00,,,0.00,123,Wunderground v.1.15,2013-09-18 01:20:00,
2013-09-17 18:30:00,69.3,57.0,29.86,West,280,0.0,0.0,65,0.00,,,0.00,86,Wunderground v.1.15,2013-09-18 01:30:00,
2013-09-17 18:35:00,69.0,56.3,29.85,NW,305,0.0,0.0,64,0.00,,,0.00,70,Wunderground v.1.15,2013-09-18 01:35:00,
2013-09-17 18:40:00,68.8,56.1,29.85,WNW,303,0.0,0.0,64,0.00,,,0.00,56,Wunderground v.1.15,2013-09-18 01:40:00,
2013-09-17 18:50:00,68.3,56.1,29.85,WNW,287,0.0,0.0,65,0.00,,,0.00,30,Wunderground v.1.15,2013-09-18 01:50:00,
2013-09-17 19:00:00,67.7,55.5,29.84,NW,318,0.0,0.0,65,0.00,,,0.00,14,Wunderground v.1.15,2013-09-18 02:00:00,
2013-09-17 19:05:00,67.5,55.7,29.85,NW,322,0.0,0.0,66,0.00,,,0.00,11,Wunderground v.1.15,2013-09-18 02:05:00,
2013-09-17 19:15:00,67.3,55.5,29.85,NW,305,0.0,0.0,66,0.00,,,0.00,0,Wunderground v.1.15,2013-09-18 02:15:00,
2013-09-17 19:20:00,67.2,55.5,29.85,NW,316,0.0,0.0,66,0.00,,,0.00,0,Wunderground v.1.15,2013-09-18 02:20:00,
2013-09-17 19:25:00,67.1,55.4,29.85,NW,322,0.0,0.0,66,0.00,,,0.00,0,Wunderground v.1.15,2013-09-18 02:25:00,
2013-09-17 19:35:00,67.0,55.3,29.85,WNW,299,0.0,0.0,66,0.00,,,0.00,0,Wunderground v.1.15,2013-09-18 02:35:00,
2013-09-17 19:40:00,67.0,55.3,29.85,NW,322,0.0,0.0,66,0.00,,,0.00,0,Wunderground v.1.15,2013-09-18 02:40:00,
2013-09-17 19:50:00,66.8,55.1,29.86,NW,307,0.0,0.0,66,0.00,,,0.00,0,Wunderground v.1.15,2013-09-18 02:50:00,
2013-09-17 19:55:00,66.7,55.4,29.86,NW,311,0.0,0.0,67,0.00,,,0.00,0,Wunderground v.1.15,2013-09-18 02:55:00,
2013-09-17 20:05:00,66.7,55.0,29.86,NNW,328,0.0,0.0,66,0.00,,,0.00,0,Wunderground v.1.15,2013-09-18 03:05:00,
2013-09-17 20:15:00,66.6,54.9,29.87,NW,322,0.0,0.0,66,0.00,,,0.00,0,Wunderground v.1.15,2013-09-18 03:15:00,
2013-09-17 20:25:00,66.5,54.8,29.87,NW,318,0.0,0.0,66,0.00,,,0.00,0,Wunderground v.1.15,2013-09-18 03:25:00,
2013-09-17 20:30:00,66.4,54.7,29.88,WNW,302,0.0,0.0,66,0.00,,,0.00,0,Wunderground v.1.15,2013-09-18 03:30:00,
2013-09-17 20:35:00,66.3,55.0,29.88,NNW,332,0.0,0.0,67,0.00,,,0.00,0,Wunderground v.1.15,2013-09-18 03:35:00,
2013-09-17 20:45:00,66.3,54.6,29.88,NNW,327,0.0,0.0,66,0.00,,,0.00,0,Wunderground v.1.15,2013-09-18 03:45:00,
2013-09-17 20:55:00,66.4,54.7,29.88,NW,322,0.0,0.0,66,0.00,,,0.00,0,Wunderground v.1.15,2013-09-18 03:55:00,
2013-09-17 21:05:00,66.7,54.6,29.89,NNW,327,0.0,0.0,65,0.00,,,0.00,0,Wunderground v.1.15,2013-09-18 04:05:00,
2013-09-17 21:09:00,66.7,54.6,29.89,NW,324,0.0,0.0,65,0.00,,,0.00,0,Wunderground v.1.15,2013-09-18 04:09:00,
2013-09-17 21:15:00,66.7,54.6,29.89,NW,326,0.0,0.0,65,0.00,,,0.00,0,Wunderground v.1.15,2013-09-18 04:15:00,
2013-09-17 21:20:00,66.7,54.6,29.89,NW,316,0.0,0.0,65,0.00,,,0.00,0,Wunderground v.1.15,2013-09-18 04:20:00,
2013-09-17 21:25:00,66.7,54.6,29.89,NW,324,0.0,0.0,65,0.00,,,0.00,0,Wunderground v.1.15,2013-09-18 04:25:00,
2013-09-17 21:30:00,66.6,54.5,29.89,NW,322,0.0,0.0,65,0.00,,,0.00,0,Wunderground v.1.15,2013-09-18 04:30:00,
2013-09-17 21:35:00,66.6,54.5,29.90,NNW,330,0.0,0.0,65,0.00,,,0.00,0,Wunderground v.1.15,2013-09-18 04:35:00,
2013-09-17 21:40:00,66.5,54.4,29.90,NNW,329,0.0,0.0,65,0.00,,,0.00,0,Wunderground v.1.15,2013-09-18 04:40:00,
2013-09-17 21:50:00,66.2,54.9,29.90,NNW,332,0.0,0.0,67,0.00,,,0.00,0,Wunderground v.1.15,2013-09-18 04:50:00,
2013-09-17 21:55:00,66.2,54.9,29.90,NW,322,0.0,0.0,67,0.00,,,0.00,0,Wunderground v.1.15,2013-09-18 04:55:00,
2013-09-17 22:05:00,66.2,55.7,29.90,NW,320,0.0,0.0,69,0.00,,,0.00,0,Wunderground v.1.15,2013-09-18 05:05:00,
2013-09-17 22:15:00,65.7,56.4,29.90,NW,320,0.0,0.0,72,0.00,,,0.00,0,Wunderground v.1.15,2013-09-18 05:15:00,
2013-09-17 22:20:00,65.5,56.6,29.90,NW,320,0.0,0.0,73,0.00,,,0.00,0,Wunderground v.1.15,2013-09-18 05:20:00,
2013-09-17 22:30:00,65.3,56.4,29.90,NW,317,0.0,0.0,73,0.00,,,0.00,0,Wunderground v.1.15,2013-09-18 05:30:00,
2013-09-17 22:35:00,65.3,56.0,29.90,NW,309,0.0,0.0,72,0.00,,,0.00,0,Wunderground v.1.15,2013-09-18 05:35:00,
2013-09-17 22:40:00,65.1,57.0,29.90,NW,309,0.0,0.0,75,0.00,,,0.00,0,Wunderground v.1.15,2013-09-18 05:40:00,
2013-09-17 22:50:00,64.4,56.7,29.91,WNW,289,0.0,0.0,76,0.00,,,0.00,0,Wunderground v.1.15,2013-09-18 05:50:00,
2013-09-17 23:00:00,64.3,57.3,29.91,WSW,258,0.0,0.0,78,0.00,,,0.00,0,Wunderground v.1.15,2013-09-18 06:00:00,
2013-09-17 23:05:00,64.0,57.0,29.90,WSW,258,0.0,0.0,78,0.00,,,0.00,0,Wunderground v.1.15,2013-09-18 06:05:00,
2013-09-17 23:10:00,63.8,57.2,29.91,WSW,257,0.0,0.0,79,0.00,,,0.00,0,Wunderground v.1.15,2013-09-18 06:10:00,
2013-09-17 23:20:00,63.7,57.4,29.91,WSW,257,0.0,0.0,80,0.00,,,0.00,0,Wunderground v.1.15,2013-09-18 06:20:00,
2013-09-17 23:30:00,63.6,57.3,29.91,WSW,257,0.0,0.0,80,0.00,,,0.00,0,Wunderground v.1.15,2013-09-18 06:30:00,
2013-09-17 23:35:00,63.6,57.3,29.91,WSW,257,0.0,0.0,80,0.00,,,0.00,0,Wunderground v.1.15,2013-09-18 06:35:00,
2013-09-17 23:45:00,63.6,57.7,29.91,WSW,257,0.0,0.0,81,0.00,,,0.00,0,Wunderground v.1.15,2013-09-18 06:45:00,
2013-09-17 23:50:00,63.3,57.0,29.91,WSW,257,0.0,0.0,80,0.00,,,0.00,0,Wunderground v.1.15,2013-09-18 06:50:00,
2013-09-17 23:55:00,63.2,57.3,29.91,WSW,257,0.0,0.0,81,0.00,,,0.00,0,Wunderground v.1.15,2013-09-18 06:55:00,